createdAt,value
2022-08-19T00:00:59.824Z,0.70
2022-08-19T00:03:01.518Z,0.88
2022-08-19T00:05:04.966Z,0.40
2022-08-19T00:07:07.479Z,0.52
2022-08-19T00:09:11.814Z,1.02
2022-08-19T00:11:15.118Z,1.00
2022-08-19T00:13:29.641Z,0.70
2022-08-19T00:15:31.340Z,0.98
2022-08-19T00:17:33.180Z,1.00
2022-08-19T00:19:37.036Z,1.05
2022-08-19T00:21:40.568Z,1.00
2022-08-19T00:23:44.091Z,1.05
2022-08-19T00:25:48.602Z,1.25
2022-08-19T00:27:50.608Z,0.90
2022-08-19T00:29:52.735Z,1.00
2022-08-19T00:31:56.797Z,0.95
2022-08-19T00:33:58.870Z,1.13
2022-08-19T00:36:07.900Z,1.60
2022-08-19T00:38:09.559Z,1.17
2022-08-19T00:40:12.797Z,1.25
2022-08-19T00:42:15.790Z,1.20
2022-08-19T00:44:21.418Z,1.20
2022-08-19T00:46:29.431Z,1.15
2022-08-19T00:48:34.614Z,1.20
2022-08-19T00:50:36.865Z,0.95
2022-08-19T00:52:55.623Z,1.02
2022-08-19T00:54:59.887Z,1.30
2022-08-19T00:57:02.998Z,1.40
2022-08-19T00:59:09.893Z,1.20
2022-08-19T01:01:12.027Z,1.00
2022-08-19T01:03:21.162Z,1.13
2022-08-19T01:05:28.497Z,1.35
2022-08-19T01:07:37.762Z,1.30
2022-08-19T01:09:40.253Z,0.97
2022-08-19T01:11:45.567Z,1.10
2022-08-19T01:13:49.345Z,1.23
2022-08-19T01:16:02.702Z,1.23
2022-08-19T01:18:09.474Z,1.02
2022-08-19T01:20:17.465Z,1.33
2022-08-19T01:22:31.465Z,1.00
2022-08-19T01:24:35.437Z,1.17
2022-08-19T01:26:49.795Z,1.00
2022-08-19T01:28:59.623Z,1.45
2022-08-19T01:31:08.201Z,1.13
2022-08-19T01:33:10.759Z,1.65
2022-08-19T01:35:14.702Z,1.50
2022-08-19T01:37:16.611Z,1.05
2022-08-19T01:39:29.723Z,1.40
2022-08-19T01:41:32.010Z,1.27
2022-08-19T01:43:34.958Z,1.90
2022-08-19T01:45:39.020Z,1.30
2022-08-19T01:47:41.503Z,1.65
2022-08-19T01:49:43.452Z,1.92
2022-08-19T01:51:46.059Z,1.70
2022-08-19T01:53:51.669Z,1.42
2022-08-19T01:55:53.705Z,1.52
2022-08-19T01:57:59.308Z,1.80
2022-08-19T02:00:04.793Z,1.67
2022-08-19T02:02:09.608Z,1.75
2022-08-19T02:04:11.686Z,1.73
2022-08-19T02:06:13.908Z,1.55
2022-08-19T02:08:15.884Z,1.60
2022-08-19T02:10:22.592Z,1.73
2022-08-19T02:12:24.595Z,1.42
2022-08-19T02:14:26.496Z,1.70
2022-08-19T02:16:28.506Z,1.50
2022-08-19T02:18:37.123Z,1.40
2022-08-19T02:20:41.180Z,1.67
2022-08-19T02:22:44.384Z,1.95
2022-08-19T02:24:46.602Z,1.58
2022-08-19T02:26:48.757Z,1.55
2022-08-19T02:28:50.942Z,1.70
2022-08-19T02:30:52.883Z,1.70
2022-08-19T02:32:55.114Z,1.52
2022-08-19T02:34:57.370Z,1.65
2022-08-19T02:37:03.504Z,2.05
2022-08-19T02:39:06.038Z,1.48
2022-08-19T02:41:15.578Z,1.70
2022-08-19T02:43:17.652Z,1.30
2022-08-19T02:45:19.997Z,2.15
2022-08-19T02:47:21.924Z,1.50
2022-08-19T02:49:23.937Z,1.73
2022-08-19T02:51:31.351Z,1.63
2022-08-19T02:53:34.040Z,1.60
2022-08-19T02:55:45.875Z,1.55
2022-08-19T02:57:49.124Z,1.63
2022-08-19T02:59:51.682Z,1.63
2022-08-19T03:01:53.680Z,1.52
2022-08-19T03:03:57.119Z,1.40
2022-08-19T03:06:14.442Z,1.55
2022-08-19T03:08:16.785Z,1.45
2022-08-19T03:10:18.875Z,1.42
2022-08-19T03:12:20.835Z,1.73
2022-08-19T03:14:24.360Z,1.42
2022-08-19T03:16:28.191Z,1.40
2022-08-19T03:18:36.167Z,1.63
2022-08-19T03:20:57.547Z,1.40
2022-08-19T03:23:00.202Z,1.38
2022-08-19T03:25:02.521Z,1.33
2022-08-19T03:27:06.090Z,1.42
2022-08-19T03:29:09.712Z,1.10
2022-08-19T03:31:45.201Z,1.55
2022-08-19T03:33:37.519Z,1.20
2022-08-19T03:35:39.848Z,1.02
2022-08-19T03:37:42.267Z,1.20
2022-08-19T03:39:44.442Z,1.17
2022-08-19T03:41:49.766Z,1.15
2022-08-19T03:43:53.293Z,1.52
2022-08-19T03:46:06.693Z,1.08
2022-08-19T03:48:09.226Z,0.70
2022-08-19T03:50:11.078Z,0.70
2022-08-19T03:52:13.201Z,0.73
2022-08-19T03:54:16.871Z,0.70
2022-08-19T03:56:19.216Z,0.80
2022-08-19T03:58:22.015Z,0.70
2022-08-19T04:00:23.915Z,0.95
2022-08-19T04:02:25.799Z,0.80
2022-08-19T04:04:28.976Z,0.85
2022-08-19T04:06:35.633Z,0.90
2022-08-19T04:08:42.838Z,1.00
2022-08-19T04:10:44.753Z,0.70
2022-08-19T04:12:47.470Z,1.00
2022-08-19T04:14:51.078Z,0.65
2022-08-19T04:16:54.396Z,0.93
2022-08-19T04:18:58.071Z,1.08
2022-08-19T04:21:00.494Z,0.95
2022-08-19T04:23:02.359Z,1.05
2022-08-19T04:25:04.431Z,1.30
2022-08-19T04:27:07.191Z,1.60
2022-08-19T04:29:15.000Z,1.10
2022-08-19T04:31:22.333Z,0.98
2022-08-19T04:33:28.620Z,0.85
2022-08-19T04:35:37.573Z,1.42
2022-08-19T04:37:39.625Z,1.40
2022-08-19T04:40:02.171Z,1.10
2022-08-19T04:42:30.742Z,1.40
2022-08-19T04:44:35.177Z,1.20
2022-08-19T04:46:40.186Z,1.40
2022-08-19T04:48:49.246Z,1.25
2022-08-19T04:50:52.062Z,1.42
2022-08-19T04:52:54.528Z,1.10
2022-08-19T04:54:56.722Z,1.10
2022-08-19T04:56:59.036Z,1.02
2022-08-19T04:59:07.329Z,1.00
2022-08-19T05:01:12.648Z,0.73
2022-08-19T05:03:18.120Z,0.70
2022-08-19T05:05:20.940Z,0.70
2022-08-19T05:07:22.682Z,0.60
2022-08-19T05:09:24.574Z,0.35
2022-08-19T05:11:29.460Z,0.50
2022-08-19T05:13:40.188Z,0.30
2022-08-19T05:15:44.233Z,0.50
2022-08-19T05:18:05.934Z,0.80
2022-08-19T05:20:27.163Z,0.35
2022-08-19T05:22:36.639Z,0.40
2022-08-19T05:24:51.234Z,0.47
2022-08-19T05:27:00.120Z,0.50
2022-08-19T05:29:01.790Z,0.45
2022-08-19T05:31:03.970Z,0.40
2022-08-19T05:33:05.690Z,0.57
2022-08-19T05:35:07.952Z,0.40
2022-08-19T05:37:10.123Z,0.52
2022-08-19T05:39:17.710Z,0.52
2022-08-19T05:41:20.529Z,0.60
2022-08-19T05:43:22.265Z,0.47
2022-08-19T05:45:23.942Z,0.40
2022-08-19T05:47:30.144Z,0.50
2022-08-19T05:49:33.319Z,0.40
2022-08-19T05:51:37.269Z,0.73
2022-08-19T05:53:39.273Z,0.40
2022-08-19T05:55:40.939Z,0.43
2022-08-19T05:57:42.650Z,0.40
2022-08-19T05:59:46.893Z,0.40
2022-08-19T06:01:53.266Z,0.40
2022-08-19T06:03:54.995Z,0.50
2022-08-19T06:05:56.707Z,0.32
2022-08-19T06:07:59.772Z,0.30
2022-08-19T06:10:01.644Z,0.30
2022-08-19T06:12:05.683Z,0.43
2022-08-19T06:14:16.439Z,0.43
2022-08-19T06:16:23.401Z,0.20
2022-08-19T06:18:25.321Z,0.30
2022-08-19T06:20:54.080Z,0.30
2022-08-19T06:22:52.466Z,0.20
2022-08-19T06:24:55.105Z,0.20
2022-08-19T06:27:00.983Z,0.22
2022-08-19T06:29:07.414Z,0.22
2022-08-19T06:31:09.982Z,0.20
2022-08-19T06:33:11.640Z,0.10
2022-08-19T06:35:15.569Z,0.30
2022-08-19T06:37:17.336Z,0.10
2022-08-19T06:39:28.347Z,0.20
2022-08-19T06:41:31.639Z,0.20
2022-08-19T06:43:42.594Z,0.30
2022-08-19T06:45:45.595Z,0.20
2022-08-19T06:47:49.482Z,0.20
2022-08-19T06:49:51.598Z,0.20
2022-08-19T06:51:53.306Z,0.17
2022-08-19T06:53:56.847Z,0.30
2022-08-19T06:56:03.107Z,0.20
2022-08-19T06:58:06.051Z,0.13
2022-08-19T07:00:13.053Z,0.30
2022-08-19T07:02:14.948Z,0.20
2022-08-19T07:04:19.791Z,0.20
2022-08-19T07:08:47.618Z,0.20
2022-08-19T07:10:50.136Z,0.13
2022-08-19T07:12:51.972Z,0.25
2022-08-19T07:14:54.611Z,0.13
2022-08-19T07:16:57.781Z,0.20
2022-08-19T07:19:00.407Z,0.20
2022-08-19T07:21:20.670Z,0.15
2022-08-19T07:23:24.895Z,0.20
2022-08-19T07:25:32.152Z,0.20
2022-08-19T07:27:35.539Z,0.20
2022-08-19T07:29:37.964Z,0.20
2022-08-19T07:31:40.227Z,0.30
2022-08-19T07:33:46.754Z,0.30
2022-08-19T07:35:50.233Z,0.10
2022-08-19T07:37:54.176Z,0.30
2022-08-19T07:39:56.105Z,0.30
2022-08-19T07:42:00.239Z,0.20
2022-08-19T07:44:04.946Z,0.30
2022-08-19T07:48:15.468Z,0.40
2022-08-19T07:50:20.509Z,0.30
2022-08-19T07:52:23.405Z,0.30
2022-08-19T07:54:26.740Z,0.20
2022-08-19T07:56:28.500Z,0.50
2022-08-19T07:58:37.211Z,0.20
2022-08-19T08:00:39.663Z,0.20
2022-08-19T08:02:43.496Z,0.13
2022-08-19T08:05:03.795Z,0.60
2022-08-19T08:07:25.725Z,0.22
2022-08-19T08:09:42.025Z,0.28
2022-08-19T08:11:55.725Z,0.38
2022-08-19T08:14:01.097Z,0.30
2022-08-19T08:16:06.970Z,0.40
2022-08-19T08:18:12.833Z,0.30
2022-08-19T08:20:16.461Z,0.25
2022-08-19T08:22:39.583Z,0.10
2022-08-19T08:24:41.312Z,0.32
2022-08-19T08:26:46.724Z,0.20
2022-08-19T08:30:56.718Z,0.32
2022-08-19T08:32:59.089Z,0.30
2022-08-19T08:35:01.240Z,0.40
2022-08-19T08:37:02.946Z,0.30
2022-08-19T08:39:05.875Z,0.35
2022-08-19T08:41:51.203Z,0.47
2022-08-19T08:43:54.018Z,0.50
2022-08-19T08:46:12.354Z,0.35
2022-08-19T08:48:52.574Z,0.30
2022-08-19T08:50:57.547Z,0.38
2022-08-19T08:52:59.849Z,0.40
2022-08-19T08:55:10.036Z,0.50
2022-08-19T08:57:18.888Z,0.20
2022-08-19T08:59:34.501Z,0.40
2022-08-19T09:01:37.121Z,0.35
2022-08-19T09:03:42.911Z,0.95
2022-08-19T09:06:03.410Z,0.77
2022-08-19T09:08:09.911Z,0.40
2022-08-19T09:10:43.982Z,0.70
2022-08-19T09:13:00.391Z,0.43
2022-08-19T09:15:06.578Z,0.35
2022-08-19T09:17:11.160Z,0.40
2022-08-19T09:19:12.950Z,0.52
2022-08-19T09:21:16.442Z,0.40
2022-08-19T09:23:19.057Z,0.40
2022-08-19T09:25:29.532Z,0.57
2022-08-19T09:27:42.476Z,0.40
2022-08-19T09:29:45.176Z,0.73
2022-08-19T09:31:46.962Z,0.40
2022-08-19T09:33:49.562Z,0.80
2022-08-19T09:36:08.629Z,0.50
2022-08-19T09:38:10.510Z,0.28
2022-08-19T09:40:13.153Z,1.13
2022-08-19T09:42:16.095Z,0.43
2022-08-19T09:44:22.016Z,0.40
2022-08-19T09:46:26.984Z,0.40
2022-08-19T09:48:28.705Z,0.40
2022-08-19T09:50:39.439Z,0.22
2022-08-19T09:52:56.994Z,0.47
2022-08-19T09:55:00.511Z,0.85
2022-08-19T09:57:05.109Z,0.52
2022-08-19T09:59:10.479Z,0.77
2022-08-19T10:01:19.493Z,1.08
2022-08-19T10:03:21.558Z,0.32
2022-08-19T10:05:45.711Z,0.50
2022-08-19T10:07:51.342Z,0.60
2022-08-19T10:09:53.107Z,0.60
2022-08-19T10:11:55.193Z,0.93
2022-08-19T10:13:57.452Z,0.85
2022-08-19T10:16:10.148Z,0.93
2022-08-19T10:18:13.601Z,0.70
2022-08-19T10:20:15.370Z,0.80
2022-08-19T10:22:17.250Z,0.88
2022-08-19T10:24:18.996Z,0.80
2022-08-19T10:26:23.888Z,0.85
2022-08-19T10:28:28.458Z,0.52
2022-08-19T10:30:32.153Z,0.80
2022-08-19T10:32:34.616Z,0.77
2022-08-19T10:34:38.496Z,0.88
2022-08-19T10:36:54.363Z,0.75
2022-08-19T10:39:00.196Z,1.10
2022-08-19T10:41:13.569Z,0.75
2022-08-19T10:43:15.859Z,0.88
2022-08-19T10:45:18.427Z,0.80
2022-08-19T10:47:25.573Z,1.58
2022-08-19T10:49:28.587Z,0.90
2022-08-19T10:51:48.857Z,0.85
2022-08-19T10:53:52.164Z,0.85
2022-08-19T10:56:12.452Z,0.73
2022-08-19T10:58:16.302Z,1.20
2022-08-19T11:00:18.854Z,1.00
2022-08-19T11:02:20.710Z,2.08
2022-08-19T11:04:23.574Z,0.63
2022-08-19T11:06:33.169Z,1.23
2022-08-19T11:08:38.485Z,0.63
2022-08-19T11:10:50.318Z,1.00
2022-08-19T11:12:56.219Z,0.88
2022-08-19T11:14:57.890Z,0.52
2022-08-19T11:16:59.775Z,0.55
2022-08-19T11:19:02.000Z,0.70
2022-08-19T11:21:20.679Z,0.60
2022-08-19T11:23:22.411Z,0.57
2022-08-19T11:25:24.273Z,0.90
2022-08-19T11:27:25.976Z,1.00
2022-08-19T11:29:28.897Z,0.60
2022-08-19T11:31:37.173Z,1.13
2022-08-19T11:33:47.573Z,0.77
2022-08-19T11:35:50.439Z,1.00
2022-08-19T11:37:52.210Z,1.10
2022-08-19T11:39:54.599Z,0.68
2022-08-19T11:41:57.016Z,1.10
2022-08-19T11:43:58.758Z,0.50
2022-08-19T11:46:01.562Z,0.50
2022-08-19T11:48:04.184Z,0.95
2022-08-19T11:50:07.011Z,0.85
2022-08-19T11:52:08.927Z,0.90
2022-08-19T11:54:11.524Z,0.70
2022-08-19T11:56:13.434Z,0.80
2022-08-19T11:58:18.995Z,0.88
2022-08-19T12:00:21.130Z,1.20
2022-08-19T12:02:22.928Z,0.75
2022-08-19T12:04:24.773Z,0.70
2022-08-19T12:06:32.793Z,0.80
2022-08-19T12:08:34.717Z,0.90
2022-08-19T12:10:37.398Z,0.73
2022-08-19T12:12:43.782Z,0.65
2022-08-19T12:14:47.692Z,0.75
2022-08-19T12:16:51.624Z,1.00
2022-08-19T12:18:55.416Z,0.80
2022-08-19T12:20:57.424Z,0.85
2022-08-19T12:22:59.273Z,0.77
2022-08-19T12:25:01.910Z,0.80
2022-08-19T12:27:03.897Z,1.15
2022-08-19T12:29:06.111Z,0.60
2022-08-19T12:31:08.262Z,0.73
2022-08-19T12:33:10.002Z,0.88
2022-08-19T12:35:12.495Z,0.70
2022-08-19T12:37:14.581Z,0.93
2022-08-19T12:39:16.351Z,1.13
2022-08-19T12:41:19.416Z,1.00
2022-08-19T12:43:21.517Z,0.80
2022-08-19T12:45:23.796Z,1.00
2022-08-19T12:47:27.567Z,1.23
2022-08-19T12:49:52.240Z,1.13
2022-08-19T12:51:53.307Z,0.85
2022-08-19T12:53:55.206Z,0.90
2022-08-19T12:55:58.989Z,0.73
2022-08-19T12:58:02.652Z,0.82
2022-08-19T13:00:08.848Z,1.27
2022-08-19T13:02:11.447Z,0.80
2022-08-19T13:04:13.229Z,0.75
2022-08-19T13:06:16.027Z,0.98
2022-08-19T13:08:21.334Z,0.63
2022-08-19T13:10:25.918Z,1.10
2022-08-19T13:12:27.778Z,0.95
2022-08-19T13:14:31.611Z,0.90
2022-08-19T13:16:36.853Z,1.10
2022-08-19T13:18:40.706Z,0.85
2022-08-19T13:20:42.597Z,0.70
2022-08-19T13:22:55.851Z,1.00
2022-08-19T13:25:02.136Z,0.77
2022-08-19T13:27:04.030Z,1.00
2022-08-19T13:29:24.527Z,0.80
2022-08-19T13:31:46.874Z,0.80
2022-08-19T13:33:49.751Z,1.10
2022-08-19T13:35:58.689Z,0.90
2022-08-19T13:38:05.039Z,0.88
2022-08-19T13:40:07.710Z,1.27
2022-08-19T13:42:10.360Z,0.88
2022-08-19T13:44:12.053Z,0.70
2022-08-19T13:46:16.594Z,0.90
2022-08-19T13:48:19.757Z,0.60
2022-08-19T13:50:26.575Z,0.70
2022-08-19T13:52:28.227Z,0.98
2022-08-19T13:54:29.942Z,0.80
2022-08-19T13:56:31.590Z,0.73
2022-08-19T13:58:33.237Z,0.88
2022-08-19T14:00:38.206Z,1.00
2022-08-19T14:02:40.934Z,0.82
2022-08-19T14:04:42.775Z,0.80
2022-08-19T14:06:44.499Z,0.60
2022-08-19T14:08:46.803Z,0.70
2022-08-19T14:10:49.501Z,0.60
2022-08-19T14:12:54.214Z,0.82
2022-08-19T14:14:56.082Z,0.77
2022-08-19T14:16:57.746Z,1.00
2022-08-19T14:18:59.503Z,1.10
2022-08-19T14:21:01.207Z,0.75
2022-08-19T14:23:04.150Z,1.15
2022-08-19T14:25:08.254Z,0.82
2022-08-19T14:27:09.988Z,0.88
2022-08-19T14:29:11.984Z,0.43
2022-08-19T14:31:19.384Z,0.77
2022-08-19T14:33:21.182Z,0.88
2022-08-19T14:35:30.900Z,0.75
2022-08-19T14:37:34.632Z,0.70
2022-08-19T14:39:47.023Z,0.65
2022-08-19T14:41:48.765Z,1.27
2022-08-19T14:43:52.918Z,0.70
2022-08-19T14:45:54.715Z,0.60
2022-08-19T14:47:56.665Z,0.60
2022-08-19T14:49:58.495Z,0.73
2022-08-19T14:52:00.196Z,0.80
2022-08-19T14:54:01.869Z,1.23
2022-08-19T14:56:12.235Z,0.60
2022-08-19T14:58:28.913Z,0.70
2022-08-19T15:00:31.983Z,0.88
2022-08-19T15:02:35.531Z,1.00
2022-08-19T15:04:37.707Z,0.73
2022-08-19T15:06:40.115Z,0.70
2022-08-19T15:08:44.130Z,0.68
2022-08-19T15:10:47.496Z,0.70
2022-08-19T15:12:51.710Z,0.73
2022-08-19T15:14:56.934Z,0.40
2022-08-19T15:16:58.865Z,1.17
2022-08-19T15:19:01.112Z,1.20
2022-08-19T15:21:04.223Z,0.63
2022-08-19T15:23:06.686Z,1.00
2022-08-19T15:25:12.203Z,0.95
2022-08-19T15:27:14.243Z,1.08
2022-08-19T15:29:17.401Z,1.08
2022-08-19T15:31:25.348Z,0.68
2022-08-19T15:33:42.261Z,0.82
2022-08-19T15:35:44.790Z,0.80
2022-08-19T15:37:50.723Z,0.70
2022-08-19T15:39:53.818Z,0.57
2022-08-19T15:41:55.519Z,0.65
2022-08-19T15:44:04.483Z,0.82
2022-08-19T15:46:06.278Z,0.90
2022-08-19T15:48:08.772Z,0.47
2022-08-19T15:50:16.164Z,0.65
2022-08-19T15:52:21.396Z,1.02
2022-08-19T15:54:23.266Z,1.02
2022-08-19T15:56:27.324Z,0.60
2022-08-19T15:58:48.218Z,0.85
2022-08-19T16:03:43.382Z,0.93
2022-08-19T16:06:07.834Z,1.17
2022-08-19T16:10:27.224Z,0.80
2022-08-19T16:12:30.517Z,0.57
2022-08-19T16:14:35.503Z,0.50
2022-08-19T16:16:38.030Z,1.35
2022-08-19T16:18:39.855Z,1.23
2022-08-19T16:20:41.629Z,1.05
2022-08-19T16:22:43.328Z,0.98
2022-08-19T16:24:45.361Z,0.90
2022-08-19T16:26:48.360Z,0.80
2022-08-19T16:28:50.253Z,0.95
2022-08-19T16:30:52.918Z,0.82
2022-08-19T16:32:54.704Z,0.75
2022-08-19T16:34:56.486Z,0.70
2022-08-19T16:36:58.215Z,0.90
2022-08-19T16:39:00.260Z,1.23
2022-08-19T16:41:01.940Z,0.90
2022-08-19T16:43:04.487Z,1.08
2022-08-19T16:45:08.867Z,1.00
2022-08-19T16:47:12.560Z,0.75
2022-08-19T16:49:15.095Z,0.80
2022-08-19T16:51:16.999Z,0.75
2022-08-19T16:53:20.834Z,0.93
2022-08-19T16:55:22.552Z,1.40
2022-08-19T16:57:24.300Z,0.95
2022-08-19T16:59:26.856Z,0.75
2022-08-19T17:01:29.147Z,0.98
2022-08-19T17:03:42.571Z,0.90
2022-08-19T17:05:45.414Z,0.88
2022-08-19T17:07:47.175Z,0.50
2022-08-19T17:09:49.463Z,0.98
2022-08-19T17:11:52.440Z,0.80
2022-08-19T17:13:55.591Z,1.38
2022-08-19T17:15:57.551Z,1.20
2022-08-19T17:18:05.221Z,1.00
2022-08-19T17:20:09.567Z,1.10
2022-08-19T17:22:13.026Z,0.88
2022-08-19T17:24:14.709Z,0.95
2022-08-19T17:26:18.533Z,0.90
2022-08-19T17:28:27.386Z,1.48
2022-08-19T17:30:29.174Z,1.10
2022-08-19T17:32:35.588Z,1.73
2022-08-19T17:34:39.223Z,1.23
2022-08-19T17:36:40.926Z,0.95
2022-08-19T17:38:42.877Z,0.80
2022-08-19T17:40:46.208Z,0.82
2022-08-19T17:42:48.221Z,0.80
2022-08-19T17:44:50.477Z,1.00
2022-08-19T17:46:53.654Z,1.15
2022-08-19T17:48:57.719Z,1.23
2022-08-19T17:51:00.521Z,1.27
2022-08-19T17:53:02.853Z,1.83
2022-08-19T17:55:07.998Z,0.85
2022-08-19T17:57:09.974Z,1.05
2022-08-19T17:59:14.167Z,1.38
2022-08-19T18:01:16.399Z,1.00
2022-08-19T18:03:21.774Z,1.55
2022-08-19T18:05:29.551Z,1.45
2022-08-19T18:07:34.351Z,1.10
2022-08-19T18:09:42.318Z,1.10
2022-08-19T18:11:44.882Z,1.48
2022-08-19T18:13:54.520Z,1.33
2022-08-19T18:15:58.655Z,1.27
2022-08-19T18:18:00.497Z,1.17
2022-08-19T18:20:12.145Z,1.13
2022-08-19T18:22:26.792Z,1.30
2022-08-19T18:24:28.626Z,1.17
2022-08-19T18:26:30.370Z,1.42
2022-08-19T18:28:32.675Z,2.17
2022-08-19T18:30:34.623Z,1.15
2022-08-19T18:32:38.461Z,1.75
2022-08-19T18:34:44.890Z,1.27
2022-08-19T18:36:54.271Z,1.58
2022-08-19T18:39:14.731Z,1.25
2022-08-19T18:41:36.455Z,1.73
2022-08-19T18:43:57.400Z,1.55
2022-08-19T18:46:17.324Z,1.50
2022-08-19T18:48:37.850Z,1.07
2022-08-19T18:50:43.123Z,0.98
2022-08-19T18:52:44.907Z,1.30
2022-08-19T18:54:48.345Z,1.20
2022-08-19T18:56:53.438Z,1.80
2022-08-19T18:58:56.736Z,1.30
2022-08-19T19:00:59.841Z,1.73
2022-08-19T19:03:02.567Z,1.88
2022-08-19T19:05:07.400Z,1.88
2022-08-19T19:07:09.749Z,1.58
2022-08-19T19:09:18.990Z,1.23
2022-08-19T19:11:34.095Z,1.52
2022-08-19T19:13:48.646Z,1.40
2022-08-19T19:15:50.618Z,1.10
2022-08-19T19:17:54.937Z,1.23
2022-08-19T19:19:57.352Z,1.30
2022-08-19T19:22:01.242Z,2.35
2022-08-19T19:24:03.646Z,1.73
2022-08-19T19:26:07.285Z,1.45
2022-08-19T19:28:10.140Z,1.55
2022-08-19T19:30:16.907Z,1.83
2022-08-19T19:32:36.885Z,1.65
2022-08-19T19:34:40.833Z,1.38
2022-08-19T19:36:43.051Z,1.80
2022-08-19T19:38:48.537Z,1.10
2022-08-19T19:40:51.202Z,1.33
2022-08-19T19:42:54.510Z,1.20
2022-08-19T19:44:56.705Z,1.17
2022-08-19T19:47:00.052Z,1.23
2022-08-19T19:49:02.663Z,2.30
2022-08-19T19:51:05.325Z,1.15
2022-08-19T19:53:07.357Z,1.60
2022-08-19T19:55:12.243Z,3.00
2022-08-19T19:57:15.555Z,2.20
2022-08-19T19:59:18.361Z,2.35
2022-08-19T20:01:22.991Z,1.70
2022-08-19T20:03:27.438Z,2.00
2022-08-19T20:05:31.986Z,1.83
2022-08-19T20:07:52.654Z,1.77
2022-08-19T20:12:02.347Z,1.88
2022-08-19T20:14:26.130Z,1.63
2022-08-19T20:16:30.348Z,1.85
2022-08-19T20:18:34.813Z,2.50
2022-08-19T20:20:37.010Z,1.65
2022-08-19T20:22:40.200Z,1.80
2022-08-19T20:24:42.815Z,1.73
2022-08-19T20:26:47.472Z,1.60
2022-08-19T20:28:58.290Z,1.80
2022-08-19T20:31:10.605Z,1.38
2022-08-19T20:33:13.996Z,1.65
2022-08-19T20:35:19.435Z,1.85
2022-08-19T20:37:21.486Z,1.98
2022-08-19T20:39:23.439Z,1.48
2022-08-19T20:41:25.940Z,1.55
2022-08-19T20:43:27.962Z,1.15
2022-08-19T20:45:33.571Z,0.90
2022-08-19T20:47:36.457Z,0.85
2022-08-19T20:49:38.446Z,1.20
2022-08-19T20:51:41.473Z,1.27
2022-08-19T20:53:46.942Z,1.10
2022-08-19T20:55:52.218Z,1.10
2022-08-19T20:57:55.327Z,1.10
2022-08-19T20:59:57.389Z,1.00
2022-08-19T21:01:59.561Z,1.02
2022-08-19T21:04:01.952Z,1.05
2022-08-19T21:06:03.936Z,1.00
2022-08-19T21:08:06.026Z,1.45
2022-08-19T21:10:08.677Z,1.23
2022-08-19T21:12:12.990Z,0.82
2022-08-19T21:14:15.302Z,0.70
2022-08-19T21:16:17.277Z,1.30
2022-08-19T21:18:22.284Z,1.38
2022-08-19T21:20:24.571Z,1.00
2022-08-19T21:22:26.572Z,0.80
2022-08-19T21:24:31.381Z,0.90
2022-08-19T21:26:33.636Z,0.90
2022-08-19T21:28:36.736Z,1.05
2022-08-19T21:30:41.578Z,1.17
2022-08-19T21:32:43.599Z,1.20
2022-08-19T21:34:47.163Z,0.90
2022-08-19T21:36:49.526Z,1.25
2022-08-19T21:38:51.832Z,1.10
2022-08-19T21:40:53.987Z,1.08
2022-08-19T21:42:56.094Z,1.20
2022-08-19T21:44:58.239Z,0.93
2022-08-19T21:47:00.124Z,1.23
2022-08-19T21:49:02.194Z,0.90
2022-08-19T21:51:04.325Z,1.10
2022-08-19T21:53:06.427Z,1.17
2022-08-19T21:55:10.134Z,0.93
2022-08-19T21:57:12.181Z,0.80
2022-08-19T21:59:14.252Z,0.80
2022-08-19T22:01:16.758Z,0.80
2022-08-19T22:03:19.222Z,0.98
2022-08-19T22:05:23.531Z,0.85
2022-08-19T22:07:25.732Z,1.08
2022-08-19T22:09:27.862Z,1.10
2022-08-19T22:11:29.760Z,1.00
2022-08-19T22:13:45.068Z,0.88
2022-08-19T22:15:48.704Z,0.90
2022-08-19T22:17:51.093Z,0.80
2022-08-19T22:19:55.571Z,1.00
2022-08-19T22:21:58.705Z,1.00
2022-08-19T22:24:00.654Z,0.68
2022-08-19T22:26:06.790Z,0.95
2022-08-19T22:28:12.206Z,0.63
2022-08-19T22:30:19.667Z,1.27
2022-08-19T22:32:28.078Z,0.68
2022-08-19T22:34:31.085Z,0.63
2022-08-19T22:36:33.495Z,0.82
2022-08-19T22:38:36.565Z,0.95
2022-08-19T22:40:42.116Z,0.63
2022-08-19T22:42:45.071Z,0.68
2022-08-19T22:44:47.133Z,0.50
2022-08-19T22:46:49.771Z,0.98
2022-08-19T22:49:00.757Z,1.40
2022-08-19T22:51:22.326Z,0.52
2022-08-19T22:53:27.359Z,0.85
2022-08-19T22:55:31.177Z,0.70
2022-08-19T22:57:33.318Z,0.50
2022-08-19T22:59:38.939Z,0.70
2022-08-19T23:01:41.981Z,0.75
2022-08-19T23:03:47.452Z,0.80
2022-08-19T23:05:49.495Z,0.60
2022-08-19T23:07:57.498Z,0.80
2022-08-19T23:09:59.895Z,0.60
2022-08-19T23:12:02.006Z,0.80
2022-08-19T23:14:05.913Z,0.57
2022-08-19T23:16:10.832Z,0.98
2022-08-19T23:18:13.083Z,1.10
2022-08-19T23:20:16.183Z,0.60
2022-08-19T23:22:19.229Z,0.52
2022-08-19T23:24:28.373Z,0.77
2022-08-19T23:26:35.194Z,0.82
2022-08-19T23:28:56.587Z,0.50
2022-08-19T23:33:12.269Z,0.70
2022-08-19T23:35:14.794Z,0.63
2022-08-19T23:37:16.903Z,0.60
2022-08-19T23:39:19.516Z,0.52
2022-08-19T23:41:23.494Z,0.80
2022-08-19T23:43:31.017Z,0.80
2022-08-19T23:45:39.730Z,0.60
2022-08-19T23:47:42.037Z,0.63
2022-08-19T23:49:44.135Z,0.93
2022-08-19T23:51:46.246Z,0.60
2022-08-19T23:53:48.453Z,0.60
2022-08-19T23:55:51.313Z,0.63
2022-08-19T23:57:55.026Z,0.60
2022-08-19T23:59:57.426Z,0.70
